createdAt,value
2022-09-05T00:00:05.352Z,0
2022-09-05T00:01:14.112Z,0
2022-09-05T00:02:31.006Z,0
2022-09-05T00:03:35.298Z,0
2022-09-05T00:04:39.572Z,0
2022-09-05T00:05:44.280Z,0
2022-09-05T00:07:07.042Z,0
2022-09-05T00:08:10.414Z,0
2022-09-05T00:09:12.863Z,0
2022-09-05T00:10:36.228Z,0
2022-09-05T00:12:46.432Z,0
2022-09-05T00:14:09.226Z,0
2022-09-05T00:15:15.785Z,0
2022-09-05T00:16:21.771Z,0
2022-09-05T00:18:04.898Z,0
2022-09-05T00:26:35.980Z,0
2022-09-05T00:27:52.427Z,0
2022-09-05T00:28:55.309Z,0
2022-09-05T00:31:06.418Z,0
2022-09-05T00:33:00.778Z,0
2022-09-05T00:34:19.651Z,0
2022-09-05T00:35:25.899Z,0
2022-09-05T00:36:28.985Z,0
2022-09-05T00:37:32.041Z,0
2022-09-05T00:38:36.781Z,0
2022-09-05T00:39:40.290Z,0
2022-09-05T00:41:22.015Z,0
2022-09-05T00:42:24.806Z,0
2022-09-05T00:43:28.228Z,0
2022-09-05T00:44:31.097Z,0
2022-09-05T00:45:34.451Z,0
2022-09-05T00:46:37.371Z,0
2022-09-05T00:47:41.016Z,0
2022-09-05T00:48:51.682Z,0
2022-09-05T00:49:55.347Z,0
2022-09-05T00:50:58.532Z,0
2022-09-05T00:52:01.397Z,0
2022-09-05T00:53:07.085Z,0
2022-09-05T00:54:11.123Z,0
2022-09-05T00:55:44.003Z,0
2022-09-05T00:56:50.637Z,0
2022-09-05T00:57:53.713Z,0
2022-09-05T00:58:56.936Z,0
2022-09-05T00:59:59.446Z,0
2022-09-05T01:01:02.326Z,0
2022-09-05T01:02:24.864Z,0
2022-09-05T01:03:28.896Z,0
2022-09-05T01:04:31.488Z,0
2022-09-05T01:05:35.218Z,0
2022-09-05T01:06:37.453Z,0
2022-09-05T01:07:42.807Z,0
2022-09-05T01:08:50.061Z,0
2022-09-05T01:09:52.682Z,0
2022-09-05T01:10:55.010Z,0
2022-09-05T01:11:57.792Z,0
2022-09-05T01:13:00.859Z,0
2022-09-05T01:14:03.298Z,0
2022-09-05T01:15:15.966Z,0
2022-09-05T01:16:19.246Z,0
2022-09-05T01:17:22.874Z,0
2022-09-05T01:18:26.021Z,0
2022-09-05T01:19:29.099Z,0
2022-09-05T01:20:34.384Z,0
2022-09-05T01:21:41.274Z,0
2022-09-05T01:22:51.085Z,0
2022-09-05T01:23:53.679Z,0
2022-09-05T01:24:56.631Z,0
2022-09-05T01:25:59.345Z,0
2022-09-05T01:27:02.221Z,0
2022-09-05T01:29:05.376Z,0
2022-09-05T01:30:22.090Z,0
2022-09-05T01:31:35.692Z,0
2022-09-05T01:32:38.604Z,0
2022-09-05T01:33:40.998Z,0
2022-09-05T01:34:44.344Z,0
2022-09-05T01:35:54.893Z,0
2022-09-05T01:37:07.164Z,0
2022-09-05T01:38:35.818Z,0
2022-09-05T01:40:12.828Z,0
2022-09-05T01:41:20.314Z,0
2022-09-05T01:42:23.199Z,0
2022-09-05T01:43:26.255Z,0
2022-09-05T01:44:29.883Z,0
2022-09-05T01:45:39.570Z,0
2022-09-05T01:46:47.928Z,0
2022-09-05T01:47:52.151Z,0
2022-09-05T01:48:56.984Z,0
2022-09-05T01:50:01.730Z,0
2022-09-05T01:51:28.505Z,0
2022-09-05T01:52:34.788Z,0
2022-09-05T01:54:07.650Z,0
2022-09-05T01:55:33.144Z,0
2022-09-05T01:57:14.415Z,0
2022-09-05T01:58:22.477Z,0
2022-09-05T01:59:25.626Z,0
2022-09-05T02:00:28.211Z,0
2022-09-05T02:01:32.182Z,0
2022-09-05T02:02:36.786Z,0
2022-09-05T02:03:41.341Z,0
2022-09-05T02:04:43.673Z,0
2022-09-05T02:05:48.066Z,0
2022-09-05T02:06:52.123Z,0
2022-09-05T02:07:54.641Z,0
2022-09-05T02:08:57.349Z,0
2022-09-05T02:09:59.591Z,0
2022-09-05T02:11:10.984Z,0
2022-09-05T02:12:14.811Z,0
2022-09-05T02:13:17.326Z,0
2022-09-05T02:14:24.277Z,0
2022-09-05T02:15:37.426Z,0
2022-09-05T02:16:40.730Z,0
2022-09-05T02:17:50.202Z,0
2022-09-05T02:18:54.424Z,0
2022-09-05T02:19:57.282Z,0
2022-09-05T02:21:00.710Z,0
2022-09-05T02:22:03.114Z,0
2022-09-05T02:23:24.743Z,0
2022-09-05T02:24:48.020Z,0
2022-09-05T02:27:04.832Z,0
2022-09-05T02:28:07.984Z,0
2022-09-05T02:29:11.423Z,0
2022-09-05T02:30:32.220Z,0
2022-09-05T02:31:34.758Z,0
2022-09-05T02:32:39.218Z,0
2022-09-05T02:33:46.252Z,0
2022-09-05T02:34:49.386Z,0
2022-09-05T02:35:52.772Z,0
2022-09-05T02:36:55.822Z,0
2022-09-05T02:38:15.646Z,0
2022-09-05T02:46:33.409Z,0
2022-09-05T02:47:37.377Z,0
2022-09-05T02:48:40.166Z,0
2022-09-05T02:50:41.942Z,0
2022-09-05T02:59:13.052Z,0
2022-09-05T03:00:38.798Z,0
2022-09-05T03:01:41.999Z,0
2022-09-05T03:02:45.476Z,0
2022-09-05T03:03:47.730Z,0
2022-09-05T03:04:51.153Z,0
2022-09-05T03:06:08.385Z,0
2022-09-05T03:07:11.178Z,0
2022-09-05T03:08:14.327Z,0
2022-09-05T03:09:17.780Z,0
2022-09-05T03:10:26.864Z,0
2022-09-05T03:11:57.932Z,0
2022-09-05T03:13:32.637Z,0
2022-09-05T03:14:35.578Z,0
2022-09-05T03:15:39.029Z,0
2022-09-05T03:16:47.358Z,0
2022-09-05T03:17:50.612Z,0
2022-09-05T03:18:54.072Z,0
2022-09-05T03:19:56.747Z,0
2022-09-05T03:21:08.892Z,0
2022-09-05T03:22:13.167Z,0
2022-09-05T03:23:15.959Z,0
2022-09-05T03:24:18.943Z,0
2022-09-05T03:25:21.535Z,0
2022-09-05T03:26:24.685Z,0
2022-09-05T03:27:29.129Z,0
2022-09-05T03:28:32.349Z,0
2022-09-05T03:29:34.858Z,0
2022-09-05T03:30:37.829Z,0
2022-09-05T03:31:41.345Z,0
2022-09-05T03:32:44.491Z,0
2022-09-05T03:33:47.291Z,0
2022-09-05T03:34:51.019Z,0
2022-09-05T03:35:53.739Z,0
2022-09-05T03:36:56.599Z,0
2022-09-05T03:37:59.734Z,0
2022-09-05T03:39:02.732Z,0
2022-09-05T03:40:15.573Z,0
2022-09-05T03:41:20.075Z,0
2022-09-05T03:42:45.163Z,0
2022-09-05T03:43:47.881Z,0
2022-09-05T03:44:51.055Z,0
2022-09-05T03:45:54.323Z,0
2022-09-05T03:46:57.918Z,0
2022-09-05T03:48:03.628Z,0
2022-09-05T03:50:37.274Z,0
2022-09-05T03:59:00.329Z,4
2022-09-05T04:00:06.178Z,4
2022-09-05T04:01:10.960Z,8
2022-09-05T04:09:51.775Z,28
2022-09-05T04:10:55.619Z,32
2022-09-05T04:11:59.940Z,40
2022-09-05T04:13:05.684Z,48
2022-09-05T04:14:09.127Z,56
2022-09-05T04:15:12.272Z,68
2022-09-05T04:16:15.393Z,80
2022-09-05T04:17:18.401Z,88
2022-09-05T04:18:28.058Z,104
2022-09-05T04:19:38.237Z,124
2022-09-05T04:20:41.389Z,140
2022-09-05T04:21:44.535Z,156
2022-09-05T04:22:47.126Z,172
2022-09-05T04:23:50.194Z,192
2022-09-05T04:24:53.342Z,204
2022-09-05T04:25:56.896Z,220
2022-09-05T04:27:15.375Z,240
2022-09-05T04:28:17.810Z,256
2022-09-05T04:29:21.540Z,276
2022-09-05T04:30:38.104Z,300
2022-09-05T04:31:42.918Z,332
2022-09-05T04:33:19.831Z,380
2022-09-05T04:34:39.505Z,424
2022-09-05T04:35:42.379Z,464
2022-09-05T04:36:45.513Z,504
2022-09-05T04:37:49.425Z,548
2022-09-05T04:38:52.368Z,596
2022-09-05T04:39:55.600Z,636
2022-09-05T04:40:58.368Z,684
2022-09-05T04:42:01.508Z,728
2022-09-05T04:43:04.662Z,764
2022-09-05T04:44:07.439Z,792
2022-09-05T04:45:10.036Z,800
2022-09-05T04:46:16.957Z,816
2022-09-05T04:47:22.491Z,840
2022-09-05T04:48:30.070Z,868
2022-09-05T04:49:33.335Z,896
2022-09-05T04:50:37.934Z,924
2022-09-05T04:51:43.893Z,960
2022-09-05T04:53:06.773Z,1004
2022-09-05T04:54:10.390Z,1028
2022-09-05T04:55:13.189Z,1052
2022-09-05T04:56:16.350Z,1076
2022-09-05T04:57:19.422Z,1100
2022-09-05T04:58:22.622Z,1128
2022-09-05T05:07:50.186Z,1352
2022-09-05T05:08:54.043Z,1388
2022-09-05T05:10:05.900Z,1432
2022-09-05T05:20:39.534Z,1808
2022-09-05T05:21:46.907Z,1860
2022-09-05T05:22:49.708Z,1892
2022-09-05T05:23:53.940Z,1908
2022-09-05T05:24:57.011Z,1920
2022-09-05T05:26:00.443Z,1944
2022-09-05T05:27:03.302Z,1976
2022-09-05T05:28:08.628Z,2012
2022-09-05T05:29:29.010Z,2056
2022-09-05T05:30:32.078Z,2080
2022-09-05T05:31:34.744Z,2116
2022-09-05T05:32:44.792Z,2164
2022-09-05T05:33:49.933Z,2220
2022-09-05T05:34:51.894Z,2280
2022-09-05T05:35:55.046Z,2364
2022-09-05T05:37:00.483Z,2460
2022-09-05T05:38:03.372Z,2560
2022-09-05T05:39:06.804Z,2608
2022-09-05T05:40:09.426Z,2656
2022-09-05T05:41:12.910Z,2712
2022-09-05T05:42:20.406Z,2800
2022-09-05T05:43:23.818Z,2932
2022-09-05T05:44:26.975Z,3048
2022-09-05T05:45:30.431Z,3136
2022-09-05T05:46:33.568Z,3236
2022-09-05T05:47:36.530Z,3348
2022-09-05T05:48:39.395Z,3488
2022-09-05T05:50:00.160Z,3632
2022-09-05T05:51:02.469Z,3732
2022-09-05T05:52:05.627Z,3824
2022-09-05T05:53:08.691Z,3900
2022-09-05T05:55:01.125Z,4028
2022-09-05T05:56:56.631Z,4148
2022-09-05T05:57:59.353Z,4260
2022-09-05T05:59:02.780Z,4320
2022-09-05T06:00:05.925Z,4424
2022-09-05T06:01:37.512Z,4508
2022-09-05T06:02:42.308Z,4604
2022-09-05T06:03:45.932Z,4680
2022-09-05T06:04:50.265Z,4784
2022-09-05T06:05:52.880Z,4880
2022-09-05T06:06:58.300Z,4992
2022-09-05T06:08:38.632Z,5132
2022-09-05T06:16:28.492Z,6660
2022-09-05T06:17:32.340Z,6944
2022-09-05T06:18:35.125Z,7200
2022-09-05T06:20:11.095Z,7468
2022-09-05T06:23:30.818Z,8488
2022-09-05T06:24:44.641Z,8676
2022-09-05T06:25:47.432Z,8724
2022-09-05T06:26:49.761Z,8696
2022-09-05T06:28:01.724Z,8624
2022-09-05T06:29:23.126Z,8412
2022-09-05T06:30:40.834Z,8264
2022-09-05T06:31:44.235Z,8244
2022-09-05T06:32:56.931Z,8240
2022-09-05T06:34:01.204Z,8224
2022-09-05T06:35:04.283Z,8220
2022-09-05T06:36:07.122Z,8224
2022-09-05T06:37:09.991Z,8180
2022-09-05T06:38:13.783Z,8176
2022-09-05T06:39:16.610Z,8164
2022-09-05T06:40:19.212Z,8164
2022-09-05T06:41:22.631Z,8148
2022-09-05T06:42:28.479Z,8192
2022-09-05T06:43:46.895Z,8340
2022-09-05T06:44:50.330Z,8416
2022-09-05T06:46:43.838Z,8536
2022-09-05T06:48:44.868Z,8800
2022-09-05T06:50:48.238Z,9068
2022-09-05T06:52:21.612Z,9336
2022-09-05T06:53:32.910Z,9500
2022-09-05T06:54:37.273Z,9680
2022-09-05T06:56:02.869Z,9832
2022-09-05T06:57:07.392Z,9968
2022-09-05T06:58:09.978Z,10108
2022-09-05T06:59:12.565Z,10200
2022-09-05T07:00:18.212Z,10352
2022-09-05T07:01:25.770Z,10436
2022-09-05T07:03:06.641Z,10464
2022-09-05T07:04:33.490Z,10436
2022-09-05T07:07:01.372Z,10756
2022-09-05T07:08:13.644Z,10740
2022-09-05T07:09:39.903Z,10664
2022-09-05T07:10:42.699Z,10636
2022-09-05T07:11:45.777Z,10572
2022-09-05T07:12:48.740Z,10572
2022-09-05T07:13:51.534Z,10492
2022-09-05T07:14:54.412Z,10476
2022-09-05T07:16:11.974Z,10392
2022-09-05T07:17:14.991Z,10268
2022-09-05T07:18:18.230Z,10320
2022-09-05T07:19:21.677Z,10232
2022-09-05T07:20:24.827Z,10388
2022-09-05T07:21:27.797Z,10708
2022-09-05T07:22:46.796Z,10892
2022-09-05T07:24:07.383Z,11156
2022-09-05T07:25:56.682Z,11600
2022-09-05T07:27:01.561Z,11864
2022-09-05T07:28:27.168Z,12028
2022-09-05T07:29:33.240Z,12324
2022-09-05T07:30:36.403Z,12568
2022-09-05T07:31:39.796Z,12908
2022-09-05T07:32:42.025Z,13316
2022-09-05T07:33:44.264Z,13720
2022-09-05T07:34:46.868Z,14100
2022-09-05T07:35:49.732Z,14376
2022-09-05T07:36:57.075Z,14020
2022-09-05T07:38:18.679Z,14276
2022-09-05T07:39:28.598Z,14832
2022-09-05T07:40:32.409Z,15520
2022-09-05T07:41:35.487Z,16252
2022-09-05T07:42:38.161Z,16960
2022-09-05T07:43:41.311Z,17672
2022-09-05T07:44:44.208Z,18460
2022-09-05T07:45:55.917Z,19152
2022-09-05T07:46:59.579Z,19712
2022-09-05T07:48:02.458Z,20160
2022-09-05T07:49:05.519Z,20352
2022-09-05T07:50:44.247Z,20704
2022-09-05T07:58:55.236Z,44896
2022-09-05T08:00:00.801Z,49632
2022-09-05T08:01:04.570Z,55776
2022-09-05T08:02:07.748Z,52512
2022-09-05T08:03:11.184Z,37696
2022-09-05T08:04:14.052Z,33216
2022-09-05T08:05:18.958Z,27552
2022-09-05T08:07:34.397Z,25344
2022-09-05T08:09:20.707Z,23936
2022-09-05T08:11:23.000Z,23136
2022-09-05T08:12:43.715Z,22720
2022-09-05T08:14:43.235Z,22912
2022-09-05T08:16:10.061Z,22848
2022-09-05T08:17:18.004Z,22720
2022-09-05T08:18:21.150Z,23232
2022-09-05T08:19:24.294Z,22496
2022-09-05T08:20:27.162Z,22016
2022-09-05T08:21:30.662Z,22144
2022-09-05T08:22:40.544Z,22208
2022-09-05T08:23:55.451Z,22432
2022-09-05T08:24:58.589Z,20864
2022-09-05T08:26:02.030Z,20480
2022-09-05T08:27:04.357Z,19936
2022-09-05T08:28:18.970Z,19776
2022-09-05T08:29:22.557Z,20032
2022-09-05T08:30:27.841Z,20768
2022-09-05T08:31:31.273Z,23392
2022-09-05T08:32:43.172Z,22304
2022-09-05T08:33:46.258Z,23264
2022-09-05T08:34:49.410Z,22752
2022-09-05T08:35:53.114Z,22432
2022-09-05T08:37:04.636Z,22304
2022-09-05T08:38:09.310Z,22304
2022-09-05T08:39:12.489Z,22304
2022-09-05T08:40:15.393Z,22272
2022-09-05T08:41:19.177Z,22336
2022-09-05T08:44:09.900Z,22784
2022-09-05T08:47:56.932Z,23328
2022-09-05T08:49:00.734Z,21504
2022-09-05T08:51:10.131Z,22816
2022-09-05T08:52:12.682Z,17984
2022-09-05T08:53:18.757Z,16904
2022-09-05T08:54:54.887Z,16352
2022-09-05T08:56:10.256Z,16396
2022-09-05T08:57:22.466Z,16772
2022-09-05T08:58:24.977Z,17164
2022-09-05T08:59:32.566Z,17220
2022-09-05T09:00:37.725Z,17360
2022-09-05T09:01:46.569Z,17112
2022-09-05T09:03:52.399Z,16868
2022-09-05T09:05:02.023Z,16712
2022-09-05T09:06:13.174Z,16428
2022-09-05T09:07:47.031Z,15448
2022-09-05T09:08:56.924Z,14668
2022-09-05T09:10:08.400Z,14344
2022-09-05T09:11:10.909Z,14544
2022-09-05T09:12:14.075Z,14636
2022-09-05T09:13:17.514Z,15012
2022-09-05T09:14:29.639Z,15240
2022-09-05T09:15:34.043Z,15940
2022-09-05T09:16:37.490Z,16300
2022-09-05T09:17:40.353Z,17012
2022-09-05T09:18:43.154Z,17908
2022-09-05T09:19:46.101Z,19040
2022-09-05T09:20:48.419Z,20160
2022-09-05T09:21:51.571Z,21376
2022-09-05T09:22:54.794Z,22976
2022-09-05T09:23:57.943Z,25152
2022-09-05T09:25:12.102Z,24224
2022-09-05T09:26:35.262Z,23872
2022-09-05T09:28:04.379Z,23968
2022-09-05T09:29:54.237Z,24416
2022-09-05T09:30:57.701Z,23680
2022-09-05T09:32:01.027Z,22656
2022-09-05T09:33:04.172Z,22048
2022-09-05T09:34:06.405Z,21952
2022-09-05T09:35:09.281Z,22048
2022-09-05T09:36:11.715Z,23200
2022-09-05T09:37:15.114Z,25920
2022-09-05T09:39:11.662Z,25344
2022-09-05T09:40:43.739Z,25600
2022-09-05T09:42:05.236Z,25152
2022-09-05T09:43:07.427Z,25184
2022-09-05T09:44:11.143Z,26144
2022-09-05T09:45:23.087Z,26784
2022-09-05T09:46:32.459Z,28736
2022-09-05T09:47:41.701Z,29824
2022-09-05T09:48:44.006Z,29728
2022-09-05T09:49:46.858Z,30240
2022-09-05T09:50:50.662Z,30304
2022-09-05T09:52:03.449Z,30976
2022-09-05T09:53:06.667Z,32192
2022-09-05T09:54:09.529Z,33632
2022-09-05T09:55:13.279Z,35808
2022-09-05T09:56:30.967Z,40512
2022-09-05T09:57:34.134Z,39264
2022-09-05T09:58:37.376Z,38976
2022-09-05T09:59:41.693Z,37696
2022-09-05T10:00:58.549Z,38016
2022-09-05T10:02:12.886Z,41472
2022-09-05T10:13:07.895Z,63840
2022-09-05T10:14:22.480Z,62176
2022-09-05T10:15:53.728Z,50944
2022-09-05T10:16:59.161Z,53984
2022-09-05T10:18:08.449Z,53920
2022-09-05T10:19:12.337Z,52064
2022-09-05T10:20:15.602Z,49760
2022-09-05T10:21:18.538Z,48480
2022-09-05T10:22:37.831Z,53600
2022-09-05T10:23:44.580Z,48096
2022-09-05T10:24:47.430Z,46624
2022-09-05T10:25:50.392Z,46912
2022-09-05T10:26:52.628Z,47616
2022-09-05T10:27:55.908Z,50944
2022-09-05T10:29:10.158Z,72320
2022-09-05T10:31:23.762Z,53536
2022-09-05T10:36:29.628Z,60448
2022-09-05T10:37:32.546Z,63168
2022-09-05T10:38:37.558Z,70976
2022-09-05T10:39:40.663Z,70016
2022-09-05T10:40:46.373Z,97600
2022-09-05T10:42:26.102Z,114912
2022-09-05T10:43:29.245Z,116896
2022-09-05T10:44:32.136Z,102240
2022-09-05T10:45:38.367Z,78720
2022-09-05T10:46:51.434Z,72032
2022-09-05T10:47:55.279Z,83168
2022-09-05T10:49:16.478Z,98016
2022-09-05T10:50:20.047Z,127840
2022-09-05T10:51:27.030Z,99808
2022-09-05T10:52:31.110Z,94848
2022-09-05T10:53:38.952Z,100160
2022-09-05T10:54:43.479Z,113600
2022-09-05T10:55:49.511Z,102880
2022-09-05T10:56:54.861Z,92192
2022-09-05T10:57:57.736Z,129888
2022-09-05T10:59:30.348Z,132992
2022-09-05T11:03:59.748Z,96256
2022-09-05T11:05:03.780Z,73248
2022-09-05T11:06:08.906Z,70592
2022-09-05T11:07:11.768Z,59936
2022-09-05T11:08:14.997Z,50144
2022-09-05T11:09:17.917Z,46208
2022-09-05T11:10:20.794Z,46368
2022-09-05T11:11:26.682Z,46112
2022-09-05T11:12:37.952Z,46176
2022-09-05T11:13:40.763Z,49568
2022-09-05T11:14:43.911Z,46816
2022-09-05T11:15:51.226Z,43744
2022-09-05T11:17:16.238Z,40896
2022-09-05T11:18:19.028Z,40064
2022-09-05T11:19:58.152Z,43776
2022-09-05T11:21:01.321Z,46112
2022-09-05T11:22:12.184Z,65472
2022-09-05T11:23:27.392Z,99168
2022-09-05T11:24:32.369Z,104640
2022-09-05T11:25:36.270Z,137344
2022-09-05T11:26:43.711Z,117088
2022-09-05T11:28:28.338Z,57856
2022-09-05T11:29:34.458Z,57408
2022-09-05T11:30:38.857Z,57632
2022-09-05T11:31:50.401Z,57440
2022-09-05T11:42:17.883Z,116704
2022-09-05T11:43:21.085Z,111872
2022-09-05T11:44:24.662Z,112928
2022-09-05T11:45:30.037Z,111584
2022-09-05T11:46:32.876Z,113760
2022-09-05T11:47:41.134Z,113728
2022-09-05T11:48:53.420Z,112224
2022-09-05T11:49:57.226Z,111584
2022-09-05T11:51:00.219Z,109472
2022-09-05T11:52:03.365Z,94880
2022-09-05T11:53:06.584Z,79488
2022-09-05T11:54:09.452Z,80352
2022-09-05T11:55:21.291Z,52480
2022-09-05T11:56:28.535Z,41952
2022-09-05T11:57:34.876Z,43328
2022-09-05T11:58:44.423Z,39936
2022-09-05T11:59:50.373Z,42816
2022-09-05T12:01:42.311Z,43296
2022-09-05T12:02:49.625Z,44064
2022-09-05T12:03:57.948Z,45120
2022-09-05T12:45:45.905Z,92288
2022-09-05T12:46:52.255Z,49504
2022-09-05T12:47:57.485Z,48256
2022-09-05T12:49:06.790Z,36128
2022-09-05T12:50:14.749Z,35360
2022-09-05T12:51:45.600Z,38592
2022-09-05T12:52:50.523Z,32096
2022-09-05T12:53:53.692Z,31648
2022-09-05T12:54:57.352Z,35392
2022-09-05T12:56:10.765Z,38432
2022-09-05T13:05:27.636Z,37312
2022-09-05T13:06:31.396Z,34592
2022-09-05T13:07:35.115Z,33888
2022-09-05T13:08:40.550Z,34944
2022-09-05T13:10:10.560Z,35680
2022-09-05T13:16:35.576Z,21984
2022-09-05T13:17:38.416Z,20544
2022-09-05T13:18:47.642Z,19296
2022-09-05T13:19:51.318Z,19040
2022-09-05T13:20:55.280Z,18688
2022-09-05T13:21:58.078Z,18336
2022-09-05T13:23:01.230Z,18880
2022-09-05T13:24:04.301Z,18496
2022-09-05T13:25:07.172Z,19296
2022-09-05T13:26:09.989Z,21056
2022-09-05T13:27:13.194Z,24256
2022-09-05T13:28:16.226Z,26656
2022-09-05T13:29:18.787Z,24224
2022-09-05T13:31:44.123Z,24736
2022-09-05T13:39:57.732Z,48512
2022-09-05T13:41:01.863Z,34848
2022-09-05T13:42:05.084Z,34048
2022-09-05T13:43:07.964Z,40640
2022-09-05T13:44:25.863Z,30368
2022-09-05T13:45:31.830Z,47616
2022-09-05T13:46:41.184Z,31520
2022-09-05T13:47:43.706Z,31360
2022-09-05T13:50:35.062Z,28832
2022-09-05T13:51:37.934Z,27488
2022-09-05T13:52:41.354Z,26144
2022-09-05T13:53:44.215Z,25536
2022-09-05T13:54:50.924Z,25568
2022-09-05T13:55:56.703Z,25184
2022-09-05T13:57:06.161Z,25920
2022-09-05T13:58:09.311Z,27392
2022-09-05T13:59:11.353Z,25536
2022-09-05T14:00:16.619Z,27840
2022-09-05T14:01:31.641Z,26912
2022-09-05T14:02:34.936Z,25984
2022-09-05T14:06:30.819Z,28800
2022-09-05T14:07:52.050Z,26400
2022-09-05T14:10:43.934Z,30752
2022-09-05T14:11:46.730Z,29216
2022-09-05T14:12:49.906Z,27232
2022-09-05T14:14:09.253Z,36736
2022-09-05T14:15:14.721Z,53312
2022-09-05T14:16:16.957Z,50816
2022-09-05T14:18:56.333Z,34304
2022-09-05T14:19:58.830Z,29056
2022-09-05T14:21:01.617Z,24672
2022-09-05T14:22:20.209Z,24832
2022-09-05T14:23:25.773Z,25632
2022-09-05T14:24:29.054Z,41408
2022-09-05T14:25:31.640Z,51360
2022-09-05T14:26:34.830Z,41568
2022-09-05T14:27:38.529Z,25184
2022-09-05T14:28:41.210Z,43808
2022-09-05T14:29:49.742Z,42656
2022-09-05T14:32:13.101Z,33216
2022-09-05T14:39:30.473Z,23168
2022-09-05T14:40:34.157Z,19232
2022-09-05T14:41:37.208Z,21184
2022-09-05T14:43:11.633Z,17968
2022-09-05T14:44:15.567Z,31072
2022-09-05T14:45:18.636Z,17528
2022-09-05T14:46:21.864Z,34432
2022-09-05T14:47:32.273Z,20896
2022-09-05T14:48:39.629Z,16256
2022-09-05T14:49:54.787Z,23488
2022-09-05T14:50:59.563Z,23072
2022-09-05T14:52:03.163Z,15968
2022-09-05T14:55:23.084Z,29536
2022-09-05T14:57:08.187Z,32448
2022-09-05T15:05:47.235Z,14336
2022-09-05T15:06:49.657Z,13880
2022-09-05T15:07:52.252Z,14100
2022-09-05T15:11:26.380Z,12212
2022-09-05T15:14:03.282Z,12676
2022-09-05T15:15:06.338Z,11096
2022-09-05T15:16:09.194Z,11436
2022-09-05T15:17:12.295Z,11348
2022-09-05T15:18:21.445Z,12168
2022-09-05T15:19:24.997Z,13516
2022-09-05T15:20:28.224Z,14052
2022-09-05T15:21:33.913Z,14420
2022-09-05T15:22:38.215Z,14416
2022-09-05T15:23:42.103Z,11820
2022-09-05T15:24:56.329Z,10792
2022-09-05T15:26:22.800Z,10660
2022-09-05T15:27:29.567Z,10992
2022-09-05T15:28:32.434Z,10804
2022-09-05T15:29:35.298Z,10220
2022-09-05T15:30:37.302Z,9632
2022-09-05T15:31:40.627Z,9236
2022-09-05T15:32:44.546Z,8972
2022-09-05T15:33:53.469Z,8604
2022-09-05T15:34:57.185Z,8132
2022-09-05T15:36:00.051Z,8628
2022-09-05T15:37:08.825Z,9260
2022-09-05T15:38:25.710Z,9548
2022-09-05T15:39:29.608Z,9416
2022-09-05T15:40:32.880Z,9804
2022-09-05T15:41:43.057Z,10188
2022-09-05T15:42:46.816Z,9800
2022-09-05T15:43:50.228Z,9420
2022-09-05T15:45:09.057Z,8648
2022-09-05T15:46:13.955Z,8040
2022-09-05T15:47:16.830Z,7440
2022-09-05T15:48:19.321Z,7024
2022-09-05T15:49:23.824Z,6956
2022-09-05T15:50:26.711Z,6892
2022-09-05T15:51:29.592Z,6340
2022-09-05T15:52:34.717Z,5776
2022-09-05T15:53:37.782Z,5292
2022-09-05T15:54:40.934Z,4984
2022-09-05T15:55:54.857Z,4700
2022-09-05T15:57:07.070Z,4580
2022-09-05T15:58:09.584Z,4592
2022-09-05T15:59:12.087Z,4588
2022-09-05T16:00:15.612Z,4540
2022-09-05T16:01:30.666Z,4572
2022-09-05T16:03:10.089Z,4664
2022-09-05T16:13:23.130Z,7348
2022-09-05T16:15:19.913Z,7572
2022-09-05T16:24:58.836Z,6064
2022-09-05T16:26:03.551Z,6024
2022-09-05T16:27:06.552Z,5744
2022-09-05T16:28:09.424Z,5608
2022-09-05T16:29:11.586Z,5656
2022-09-05T16:30:15.707Z,5284
2022-09-05T16:31:19.407Z,5236
2022-09-05T16:32:22.751Z,5088
2022-09-05T16:33:25.611Z,5068
2022-09-05T16:34:29.543Z,4932
2022-09-05T16:35:32.620Z,4848
2022-09-05T16:36:35.815Z,4612
2022-09-05T16:38:11.094Z,4340
2022-09-05T16:39:13.824Z,4108
2022-09-05T16:40:17.173Z,3908
2022-09-05T16:41:24.216Z,3868
2022-09-05T16:42:29.229Z,3784
2022-09-05T16:43:50.598Z,3656
2022-09-05T16:44:52.999Z,3536
2022-09-05T16:45:55.880Z,3468
2022-09-05T16:46:58.860Z,3436
2022-09-05T16:48:02.062Z,3408
2022-09-05T16:49:11.624Z,3412
2022-09-05T16:50:16.412Z,3476
2022-09-05T16:51:37.083Z,3596
2022-09-05T16:52:39.398Z,3652
2022-09-05T16:53:59.480Z,3528
2022-09-05T16:55:02.707Z,3460
2022-09-05T16:56:05.161Z,3380
2022-09-05T16:57:07.758Z,3276
2022-09-05T16:58:12.570Z,3164
2022-09-05T16:59:18.148Z,2996
2022-09-05T17:00:21.289Z,2860
2022-09-05T17:01:24.201Z,2660
2022-09-05T17:02:27.991Z,2544
2022-09-05T17:03:31.217Z,2544
2022-09-05T17:04:34.194Z,2524
2022-09-05T17:05:37.886Z,2388
2022-09-05T17:06:45.091Z,2272
2022-09-05T17:07:48.282Z,2248
2022-09-05T17:08:51.460Z,2196
2022-09-05T17:10:16.791Z,1992
2022-09-05T17:11:29.666Z,1836
2022-09-05T17:13:03.535Z,1668
2022-09-05T17:14:06.677Z,1596
2022-09-05T17:15:09.650Z,1548
2022-09-05T17:16:12.536Z,1448
2022-09-05T17:17:19.834Z,1372
2022-09-05T17:19:35.005Z,1248
2022-09-05T17:21:10.778Z,1200
2022-09-05T17:23:20.298Z,1152
2022-09-05T17:33:05.360Z,796
2022-09-05T17:34:08.427Z,756
2022-09-05T17:35:16.535Z,732
2022-09-05T17:36:20.662Z,700
2022-09-05T17:37:43.299Z,676
2022-09-05T17:38:48.086Z,640
2022-09-05T17:39:51.551Z,612
2022-09-05T17:40:54.839Z,584
2022-09-05T17:41:57.673Z,548
2022-09-05T17:43:00.473Z,520
2022-09-05T17:44:03.973Z,496
2022-09-05T17:45:06.567Z,452
2022-09-05T17:46:09.769Z,416
2022-09-05T17:47:14.743Z,388
2022-09-05T17:48:18.577Z,348
2022-09-05T17:49:22.028Z,316
2022-09-05T17:50:25.202Z,276
2022-09-05T17:51:36.575Z,240
2022-09-05T17:52:38.720Z,212
2022-09-05T17:53:41.546Z,184
2022-09-05T17:54:49.764Z,160
2022-09-05T17:55:53.859Z,140
2022-09-05T17:56:57.416Z,120
2022-09-05T17:58:00.252Z,104
2022-09-05T17:59:03.407Z,88
2022-09-05T18:00:12.208Z,80
2022-09-05T18:01:15.637Z,68
2022-09-05T18:02:19.348Z,60
2022-09-05T18:03:23.119Z,52
2022-09-05T18:04:25.983Z,44
2022-09-05T18:05:28.772Z,40
2022-09-05T18:06:32.119Z,36
2022-09-05T18:07:34.786Z,32
2022-09-05T18:08:44.703Z,28
2022-09-05T18:31:41.184Z,0
2022-09-05T18:33:33.293Z,0
2022-09-05T18:35:00.739Z,0
2022-09-05T18:36:03.780Z,0
2022-09-05T18:37:09.139Z,0
2022-09-05T18:38:50.725Z,0
2022-09-05T18:39:55.299Z,0
2022-09-05T18:40:58.619Z,0
2022-09-05T18:42:14.807Z,0
2022-09-05T18:43:39.626Z,0
2022-09-05T18:45:28.517Z,0
2022-09-05T18:46:37.016Z,0
2022-09-05T18:47:51.346Z,0
2022-09-05T18:50:08.208Z,0
2022-09-05T18:51:35.354Z,0
2022-09-05T18:52:39.056Z,0
2022-09-05T18:53:47.035Z,0
2022-09-05T18:54:51.816Z,0
2022-09-05T18:57:29.143Z,0
2022-09-05T18:58:42.534Z,0
2022-09-05T19:00:12.008Z,0
2022-09-05T19:01:15.651Z,0
2022-09-05T19:02:26.846Z,0
2022-09-05T19:04:07.295Z,0
2022-09-05T19:05:46.783Z,0
2022-09-05T19:06:49.853Z,0
2022-09-05T19:07:54.125Z,0
2022-09-05T19:09:02.835Z,0
2022-09-05T19:10:09.520Z,0
2022-09-05T19:11:42.299Z,0
2022-09-05T19:12:56.931Z,0
2022-09-05T19:14:25.268Z,0
2022-09-05T19:15:35.106Z,0
2022-09-05T19:16:42.967Z,0
2022-09-05T19:17:52.438Z,0
2022-09-05T19:19:38.854Z,0
2022-09-05T19:20:42.502Z,0
2022-09-05T19:21:45.648Z,0
2022-09-05T19:24:15.585Z,0
2022-09-05T19:25:18.654Z,0
2022-09-05T19:26:33.183Z,0
2022-09-05T19:28:58.436Z,0
2022-09-05T19:39:36.275Z,0
2022-09-05T19:49:14.885Z,0
2022-09-05T19:50:18.239Z,0
2022-09-05T19:51:22.529Z,0
2022-09-05T19:52:29.625Z,0
2022-09-05T19:53:43.091Z,0
2022-09-05T19:54:45.522Z,0
2022-09-05T19:55:48.720Z,0
2022-09-05T19:56:51.604Z,0
2022-09-05T19:58:01.250Z,0
2022-09-05T19:59:33.857Z,0
2022-09-05T20:00:37.473Z,0
2022-09-05T20:01:41.481Z,0
2022-09-05T20:02:48.448Z,0
2022-09-05T20:03:53.945Z,0
2022-09-05T20:04:57.641Z,0
2022-09-05T20:06:00.719Z,0
2022-09-05T20:07:32.521Z,0
2022-09-05T20:08:35.962Z,0
2022-09-05T20:09:38.830Z,0
2022-09-05T20:10:41.975Z,0
2022-09-05T20:11:46.669Z,0